sensor_id;sensor_type;location;lat;lon;timestamp;P1;durP1;ratioP1;P2;durP2;ratioP2
75358;SDS011;64046;51.978;5.934;2023-02-28T00:02:01;7.75;;;3.22;;
75358;SDS011;64046;51.978;5.934;2023-02-28T00:04:30;7.35;;;3.13;;
75358;SDS011;64046;51.978;5.934;2023-02-28T00:06:59;3.88;;;2.22;;
75358;SDS011;64046;51.978;5.934;2023-02-28T00:09:28;5.40;;;2.50;;
75358;SDS011;64046;51.978;5.934;2023-02-28T00:11:57;3.85;;;2.30;;
75358;SDS011;64046;51.978;5.934;2023-02-28T00:14:32;7.20;;;2.53;;
75358;SDS011;64046;51.978;5.934;2023-02-28T00:17:01;4.03;;;2.42;;
75358;SDS011;64046;51.978;5.934;2023-02-28T00:19:30;7.82;;;2.80;;
75358;SDS011;64046;51.978;5.934;2023-02-28T00:21:59;4.53;;;2.80;;
75358;SDS011;64046;51.978;5.934;2023-02-28T00:24:28;4.35;;;2.80;;
75358;SDS011;64046;51.978;5.934;2023-02-28T00:26:58;5.03;;;2.67;;
75358;SDS011;64046;51.978;5.934;2023-02-28T00:29:27;7.93;;;3.17;;
75358;SDS011;64046;51.978;5.934;2023-02-28T00:31:59;9.32;;;2.55;;
75358;SDS011;64046;51.978;5.934;2023-02-28T00:34:28;2.70;;;2.17;;
75358;SDS011;64046;51.978;5.934;2023-02-28T00:37:04;4.65;;;2.83;;
75358;SDS011;64046;51.978;5.934;2023-02-28T00:39:34;3.40;;;2.50;;
75358;SDS011;64046;51.978;5.934;2023-02-28T00:42:04;4.88;;;2.83;;
75358;SDS011;64046;51.978;5.934;2023-02-28T00:44:34;6.47;;;3.08;;
75358;SDS011;64046;51.978;5.934;2023-02-28T00:47:06;6.32;;;2.90;;
75358;SDS011;64046;51.978;5.934;2023-02-28T00:49:35;6.28;;;3.03;;
75358;SDS011;64046;51.978;5.934;2023-02-28T00:52:04;5.47;;;2.60;;
75358;SDS011;64046;51.978;5.934;2023-02-28T00:54:33;4.13;;;2.75;;
75358;SDS011;64046;51.978;5.934;2023-02-28T00:57:03;7.05;;;2.63;;
75358;SDS011;64046;51.978;5.934;2023-02-28T00:59:32;5.10;;;2.50;;
75358;SDS011;64046;51.978;5.934;2023-02-28T01:02:01;5.75;;;2.80;;
75358;SDS011;64046;51.978;5.934;2023-02-28T01:04:33;5.82;;;3.35;;
75358;SDS011;64046;51.978;5.934;2023-02-28T01:07:02;5.07;;;2.67;;
75358;SDS011;64046;51.978;5.934;2023-02-28T01:09:31;6.13;;;3.35;;
75358;SDS011;64046;51.978;5.934;2023-02-28T01:12:01;3.67;;;2.83;;
75358;SDS011;64046;51.978;5.934;2023-02-28T01:14:30;9.73;;;3.10;;
75358;SDS011;64046;51.978;5.934;2023-02-28T01:17:00;3.38;;;2.45;;
75358;SDS011;64046;51.978;5.934;2023-02-28T01:19:33;7.70;;;2.88;;
75358;SDS011;64046;51.978;5.934;2023-02-28T01:22:03;5.55;;;2.55;;
75358;SDS011;64046;51.978;5.934;2023-02-28T01:24:34;6.32;;;2.78;;
75358;SDS011;64046;51.978;5.934;2023-02-28T01:27:03;4.75;;;2.67;;
75358;SDS011;64046;51.978;5.934;2023-02-28T01:29:32;5.65;;;3.00;;
75358;SDS011;64046;51.978;5.934;2023-02-28T01:32:02;4.13;;;2.40;;
75358;SDS011;64046;51.978;5.934;2023-02-28T01:34:34;9.90;;;3.53;;
75358;SDS011;64046;51.978;5.934;2023-02-28T01:37:03;3.92;;;2.47;;
75358;SDS011;64046;51.978;5.934;2023-02-28T01:39:33;6.32;;;3.00;;
75358;SDS011;64046;51.978;5.934;2023-02-28T01:42:03;6.40;;;2.67;;
75358;SDS011;64046;51.978;5.934;2023-02-28T01:47:31;4.78;;;2.95;;
75358;SDS011;64046;51.978;5.934;2023-02-28T01:50:07;6.65;;;2.80;;
75358;SDS011;64046;51.978;5.934;2023-02-28T01:52:41;5.43;;;3.03;;
75358;SDS011;64046;51.978;5.934;2023-02-28T01:55:12;4.07;;;2.78;;
75358;SDS011;64046;51.978;5.934;2023-02-28T01:57:45;3.17;;;2.28;;
75358;SDS011;64046;51.978;5.934;2023-02-28T02:00:18;6.25;;;3.25;;
75358;SDS011;64046;51.978;5.934;2023-02-28T02:02:50;6.93;;;3.17;;
75358;SDS011;64046;51.978;5.934;2023-02-28T02:05:26;9.63;;;2.67;;
75358;SDS011;64046;51.978;5.934;2023-02-28T02:07:57;4.13;;;2.78;;
75358;SDS011;64046;51.978;5.934;2023-02-28T02:10:32;3.67;;;2.50;;
75358;SDS011;64046;51.978;5.934;2023-02-28T02:13:08;4.57;;;2.67;;
75358;SDS011;64046;51.978;5.934;2023-02-28T02:15:49;5.80;;;2.63;;
75358;SDS011;64046;51.978;5.934;2023-02-28T02:18:31;3.95;;;2.30;;
75358;SDS011;64046;51.978;5.934;2023-02-28T02:27:22;4.38;;;2.80;;
75358;SDS011;64046;51.978;5.934;2023-02-28T02:36:11;5.93;;;2.60;;
75358;SDS011;64046;51.978;5.934;2023-02-28T02:38:45;7.05;;;3.08;;
75358;SDS011;64046;51.978;5.934;2023-02-28T02:41:19;4.38;;;2.67;;
75358;SDS011;64046;51.978;5.934;2023-02-28T02:43:56;6.22;;;2.80;;
75358;SDS011;64046;51.978;5.934;2023-02-28T02:46:32;5.90;;;3.00;;
75358;SDS011;64046;51.978;5.934;2023-02-28T02:49:04;4.38;;;2.33;;
75358;SDS011;64046;51.978;5.934;2023-02-28T02:51:39;6.50;;;2.67;;
75358;SDS011;64046;51.978;5.934;2023-02-28T02:54:11;5.32;;;2.88;;
75358;SDS011;64046;51.978;5.934;2023-02-28T02:56:45;4.65;;;3.03;;
75358;SDS011;64046;51.978;5.934;2023-02-28T02:59:17;5.30;;;3.15;;
75358;SDS011;64046;51.978;5.934;2023-02-28T03:01:50;7.03;;;2.60;;
75358;SDS011;64046;51.978;5.934;2023-02-28T03:04:22;5.80;;;2.72;;
75358;SDS011;64046;51.978;5.934;2023-02-28T03:06:57;6.57;;;3.40;;
75358;SDS011;64046;51.978;5.934;2023-02-28T03:09:26;5.95;;;3.28;;
75358;SDS011;64046;51.978;5.934;2023-02-28T03:11:56;6.30;;;3.05;;
75358;SDS011;64046;51.978;5.934;2023-02-28T03:14:28;4.07;;;2.83;;
75358;SDS011;64046;51.978;5.934;2023-02-28T03:17:16;4.82;;;2.88;;
75358;SDS011;64046;51.978;5.934;2023-02-28T03:20:00;5.43;;;3.17;;
75358;SDS011;64046;51.978;5.934;2023-02-28T03:25:29;6.97;;;3.20;;
75358;SDS011;64046;51.978;5.934;2023-02-28T03:28:08;4.82;;;3.00;;
75358;SDS011;64046;51.978;5.934;2023-02-28T03:30:45;5.50;;;3.33;;
75358;SDS011;64046;51.978;5.934;2023-02-28T03:33:20;5.47;;;3.15;;
75358;SDS011;64046;51.978;5.934;2023-02-28T03:35:52;4.70;;;2.90;;
75358;SDS011;64046;51.978;5.934;2023-02-28T03:38:29;4.63;;;2.80;;
75358;SDS011;64046;51.978;5.934;2023-02-28T03:41:04;4.88;;;2.85;;
75358;SDS011;64046;51.978;5.934;2023-02-28T03:43:39;4.93;;;2.95;;
75358;SDS011;64046;51.978;5.934;2023-02-28T03:46:12;5.53;;;2.72;;
75358;SDS011;64046;51.978;5.934;2023-02-28T03:48:49;5.75;;;3.40;;
75358;SDS011;64046;51.978;5.934;2023-02-28T03:51:22;6.82;;;3.40;;
75358;SDS011;64046;51.978;5.934;2023-02-28T03:53:57;7.30;;;3.15;;
75358;SDS011;64046;51.978;5.934;2023-02-28T03:56:31;7.72;;;3.72;;
75358;SDS011;64046;51.978;5.934;2023-02-28T03:59:04;7.63;;;3.10;;
75358;SDS011;64046;51.978;5.934;2023-02-28T04:01:38;5.97;;;2.90;;
75358;SDS011;64046;51.978;5.934;2023-02-28T04:04:09;6.03;;;3.35;;
75358;SDS011;64046;51.978;5.934;2023-02-28T04:06:40;5.85;;;2.97;;
75358;SDS011;64046;51.978;5.934;2023-02-28T04:09:13;3.22;;;2.28;;
75358;SDS011;64046;51.978;5.934;2023-02-28T04:11:44;3.38;;;2.45;;
75358;SDS011;64046;51.978;5.934;2023-02-28T04:14:14;3.88;;;2.50;;
75358;SDS011;64046;51.978;5.934;2023-02-28T04:16:43;4.47;;;2.63;;
75358;SDS011;64046;51.978;5.934;2023-02-28T04:19:13;7.13;;;3.25;;
75358;SDS011;64046;51.978;5.934;2023-02-28T04:21:43;5.82;;;2.95;;
75358;SDS011;64046;51.978;5.934;2023-02-28T04:24:18;5.55;;;2.75;;
75358;SDS011;64046;51.978;5.934;2023-02-28T04:26:49;3.88;;;2.63;;
75358;SDS011;64046;51.978;5.934;2023-02-28T04:29:20;4.72;;;2.58;;
75358;SDS011;64046;51.978;5.934;2023-02-28T04:31:51;5.28;;;2.80;;
75358;SDS011;64046;51.978;5.934;2023-02-28T04:34:23;5.40;;;2.53;;
75358;SDS011;64046;51.978;5.934;2023-02-28T04:36:53;3.50;;;2.15;;
75358;SDS011;64046;51.978;5.934;2023-02-28T04:39:26;3.92;;;2.20;;
75358;SDS011;64046;51.978;5.934;2023-02-28T04:41:55;3.38;;;2.13;;
75358;SDS011;64046;51.978;5.934;2023-02-28T04:44:24;4.47;;;2.35;;
75358;SDS011;64046;51.978;5.934;2023-02-28T04:46:54;3.05;;;1.90;;
75358;SDS011;64046;51.978;5.934;2023-02-28T04:49:23;4.60;;;2.30;;
75358;SDS011;64046;51.978;5.934;2023-02-28T04:51:52;3.33;;;1.70;;
75358;SDS011;64046;51.978;5.934;2023-02-28T04:54:21;4.15;;;2.20;;
75358;SDS011;64046;51.978;5.934;2023-02-28T04:56:53;4.75;;;2.08;;
75358;SDS011;64046;51.978;5.934;2023-02-28T04:59:23;3.78;;;1.98;;
75358;SDS011;64046;51.978;5.934;2023-02-28T05:01:52;4.13;;;2.33;;
75358;SDS011;64046;51.978;5.934;2023-02-28T05:04:21;4.00;;;2.22;;
75358;SDS011;64046;51.978;5.934;2023-02-28T05:06:50;5.88;;;2.00;;
75358;SDS011;64046;51.978;5.934;2023-02-28T05:09:21;5.65;;;2.53;;
75358;SDS011;64046;51.978;5.934;2023-02-28T05:11:52;3.35;;;2.13;;
75358;SDS011;64046;51.978;5.934;2023-02-28T05:14:22;4.80;;;2.30;;
75358;SDS011;64046;51.978;5.934;2023-02-28T05:16:51;3.30;;;1.88;;
75358;SDS011;64046;51.978;5.934;2023-02-28T05:19:20;3.55;;;2.20;;
75358;SDS011;64046;51.978;5.934;2023-02-28T05:21:50;4.32;;;2.30;;
75358;SDS011;64046;51.978;5.934;2023-02-28T05:24:20;7.57;;;2.10;;
75358;SDS011;64046;51.978;5.934;2023-02-28T05:26:53;3.25;;;1.83;;
75358;SDS011;64046;51.978;5.934;2023-02-28T05:29:23;4.75;;;2.55;;
75358;SDS011;64046;51.978;5.934;2023-02-28T05:31:52;3.05;;;1.90;;
75358;SDS011;64046;51.978;5.934;2023-02-28T05:34:22;3.55;;;2.00;;
75358;SDS011;64046;51.978;5.934;2023-02-28T05:36:51;4.93;;;2.40;;
75358;SDS011;64046;51.978;5.934;2023-02-28T05:39:20;3.67;;;2.30;;
75358;SDS011;64046;51.978;5.934;2023-02-28T05:41:49;4.97;;;2.47;;
75358;SDS011;64046;51.978;5.934;2023-02-28T05:44:21;3.53;;;1.98;;
75358;SDS011;64046;51.978;5.934;2023-02-28T05:46:50;3.25;;;2.10;;
75358;SDS011;64046;51.978;5.934;2023-02-28T05:49:19;4.43;;;2.00;;
75358;SDS011;64046;51.978;5.934;2023-02-28T05:51:48;3.65;;;1.92;;
75358;SDS011;64046;51.978;5.934;2023-02-28T05:54:17;6.10;;;2.33;;
75358;SDS011;64046;51.978;5.934;2023-02-28T05:56:46;3.28;;;1.75;;
75358;SDS011;64046;51.978;5.934;2023-02-28T05:59:16;3.42;;;2.10;;
75358;SDS011;64046;51.978;5.934;2023-02-28T06:01:47;3.20;;;1.77;;
75358;SDS011;64046;51.978;5.934;2023-02-28T06:04:19;3.47;;;1.98;;
75358;SDS011;64046;51.978;5.934;2023-02-28T06:06:49;3.47;;;2.17;;
75358;SDS011;64046;51.978;5.934;2023-02-28T06:09:19;3.75;;;2.05;;
75358;SDS011;64046;51.978;5.934;2023-02-28T06:11:48;3.58;;;1.83;;
75358;SDS011;64046;51.978;5.934;2023-02-28T06:14:18;4.20;;;1.80;;
75358;SDS011;64046;51.978;5.934;2023-02-28T06:16:51;6.88;;;2.20;;
75358;SDS011;64046;51.978;5.934;2023-02-28T06:19:20;4.05;;;1.60;;
75358;SDS011;64046;51.978;5.934;2023-02-28T06:21:51;3.22;;;1.70;;
75358;SDS011;64046;51.978;5.934;2023-02-28T06:24:21;2.92;;;1.85;;
75358;SDS011;64046;51.978;5.934;2023-02-28T06:26:53;2.38;;;1.70;;
75358;SDS011;64046;51.978;5.934;2023-02-28T06:29:24;2.35;;;1.80;;
75358;SDS011;64046;51.978;5.934;2023-02-28T06:31:57;2.78;;;1.77;;
75358;SDS011;64046;51.978;5.934;2023-02-28T06:34:26;3.80;;;2.15;;
75358;SDS011;64046;51.978;5.934;2023-02-28T06:36:55;4.30;;;2.38;;
75358;SDS011;64046;51.978;5.934;2023-02-28T06:39:25;3.35;;;2.03;;
75358;SDS011;64046;51.978;5.934;2023-02-28T06:41:54;2.25;;;2.00;;
75358;SDS011;64046;51.978;5.934;2023-02-28T06:44:23;3.30;;;2.15;;
75358;SDS011;64046;51.978;5.934;2023-02-28T06:46:53;6.13;;;2.88;;
75358;SDS011;64046;51.978;5.934;2023-02-28T06:49:24;4.57;;;2.05;;
75358;SDS011;64046;51.978;5.934;2023-02-28T06:51:54;2.65;;;1.70;;
75358;SDS011;64046;51.978;5.934;2023-02-28T06:54:23;5.25;;;2.00;;
75358;SDS011;64046;51.978;5.934;2023-02-28T06:56:53;4.75;;;2.08;;
75358;SDS011;64046;51.978;5.934;2023-02-28T06:59:22;2.13;;;1.60;;
75358;SDS011;64046;51.978;5.934;2023-02-28T07:01:51;2.47;;;1.50;;
75358;SDS011;64046;51.978;5.934;2023-02-28T07:04:21;2.70;;;1.80;;
75358;SDS011;64046;51.978;5.934;2023-02-28T07:06:52;7.15;;;1.95;;
75358;SDS011;64046;51.978;5.934;2023-02-28T07:09:22;3.15;;;2.10;;
75358;SDS011;64046;51.978;5.934;2023-02-28T07:11:55;3.05;;;1.92;;
75358;SDS011;64046;51.978;5.934;2023-02-28T07:14:26;4.30;;;2.15;;
75358;SDS011;64046;51.978;5.934;2023-02-28T07:16:55;2.67;;;1.80;;
75358;SDS011;64046;51.978;5.934;2023-02-28T07:19:24;2.55;;;1.67;;
75358;SDS011;64046;51.978;5.934;2023-02-28T07:21:56;4.60;;;1.92;;
75358;SDS011;64046;51.978;5.934;2023-02-28T07:24:26;2.80;;;2.03;;
75358;SDS011;64046;51.978;5.934;2023-02-28T07:26:56;4.60;;;2.65;;
75358;SDS011;64046;51.978;5.934;2023-02-28T07:29:25;3.67;;;2.35;;
75358;SDS011;64046;51.978;5.934;2023-02-28T07:31:55;2.55;;;1.98;;
75358;SDS011;64046;51.978;5.934;2023-02-28T07:34:24;4.63;;;2.40;;
75358;SDS011;64046;51.978;5.934;2023-02-28T07:36:57;7.00;;;3.00;;
75358;SDS011;64046;51.978;5.934;2023-02-28T07:39:29;3.55;;;2.42;;
75358;SDS011;64046;51.978;5.934;2023-02-28T07:41:58;3.40;;;2.20;;
75358;SDS011;64046;51.978;5.934;2023-02-28T07:44:29;6.78;;;2.55;;
75358;SDS011;64046;51.978;5.934;2023-02-28T07:46:58;5.40;;;2.45;;
75358;SDS011;64046;51.978;5.934;2023-02-28T07:49:27;3.47;;;2.13;;
75358;SDS011;64046;51.978;5.934;2023-02-28T07:52:00;4.05;;;2.60;;
75358;SDS011;64046;51.978;5.934;2023-02-28T07:54:29;3.47;;;2.53;;
75358;SDS011;64046;51.978;5.934;2023-02-28T07:56:59;4.28;;;2.33;;
75358;SDS011;64046;51.978;5.934;2023-02-28T07:59:28;2.63;;;2.28;;
75358;SDS011;64046;51.978;5.934;2023-02-28T08:01:57;4.45;;;2.90;;
75358;SDS011;64046;51.978;5.934;2023-02-28T08:04:27;7.25;;;2.60;;
75358;SDS011;64046;51.978;5.934;2023-02-28T08:06:56;4.85;;;2.40;;
75358;SDS011;64046;51.978;5.934;2023-02-28T08:09:28;4.20;;;2.40;;
75358;SDS011;64046;51.978;5.934;2023-02-28T08:11:57;3.42;;;2.17;;
75358;SDS011;64046;51.978;5.934;2023-02-28T08:14:26;3.17;;;2.00;;
75358;SDS011;64046;51.978;5.934;2023-02-28T08:16:55;6.15;;;2.22;;
75358;SDS011;64046;51.978;5.934;2023-02-28T08:19:25;6.05;;;2.42;;
75358;SDS011;64046;51.978;5.934;2023-02-28T08:21:54;3.63;;;2.10;;
75358;SDS011;64046;51.978;5.934;2023-02-28T08:24:24;3.40;;;2.08;;
75358;SDS011;64046;51.978;5.934;2023-02-28T08:26:55;5.10;;;1.92;;
75358;SDS011;64046;51.978;5.934;2023-02-28T08:29:25;3.72;;;1.88;;
75358;SDS011;64046;51.978;5.934;2023-02-28T08:31:56;3.45;;;1.90;;
75358;SDS011;64046;51.978;5.934;2023-02-28T08:34:25;2.45;;;2.00;;
75358;SDS011;64046;51.978;5.934;2023-02-28T08:36:54;3.22;;;2.03;;
75358;SDS011;64046;51.978;5.934;2023-02-28T08:39:23;3.08;;;2.05;;
75358;SDS011;64046;51.978;5.934;2023-02-28T08:41:52;6.90;;;1.80;;
75358;SDS011;64046;51.978;5.934;2023-02-28T08:44:24;3.75;;;1.80;;
75358;SDS011;64046;51.978;5.934;2023-02-28T08:46:54;2.83;;;1.70;;
75358;SDS011;64046;51.978;5.934;2023-02-28T08:49:23;3.35;;;1.50;;
75358;SDS011;64046;51.978;5.934;2023-02-28T08:51:52;4.03;;;2.28;;
75358;SDS011;64046;51.978;5.934;2023-02-28T08:54:23;2.47;;;1.80;;
75358;SDS011;64046;51.978;5.934;2023-02-28T08:56:57;5.45;;;1.95;;
75358;SDS011;64046;51.978;5.934;2023-02-28T08:59:27;2.78;;;2.15;;
75358;SDS011;64046;51.978;5.934;2023-02-28T09:01:57;3.42;;;2.13;;
75358;SDS011;64046;51.978;5.934;2023-02-28T09:04:26;3.30;;;1.95;;
75358;SDS011;64046;51.978;5.934;2023-02-28T09:06:56;2.00;;;1.50;;
75358;SDS011;64046;51.978;5.934;2023-02-28T09:09:25;2.65;;;2.17;;
75358;SDS011;64046;51.978;5.934;2023-02-28T09:11:57;4.72;;;2.10;;
75358;SDS011;64046;51.978;5.934;2023-02-28T09:14:27;2.33;;;1.73;;
75358;SDS011;64046;51.978;5.934;2023-02-28T09:16:56;3.60;;;2.05;;
75358;SDS011;64046;51.978;5.934;2023-02-28T09:19:26;3.22;;;1.50;;
75358;SDS011;64046;51.978;5.934;2023-02-28T09:21:56;2.70;;;1.45;;
75358;SDS011;64046;51.978;5.934;2023-02-28T09:24:25;2.90;;;1.90;;
75358;SDS011;64046;51.978;5.934;2023-02-28T09:26:54;2.35;;;1.35;;
75358;SDS011;64046;51.978;5.934;2023-02-28T09:29:26;1.80;;;1.50;;
75358;SDS011;64046;51.978;5.934;2023-02-28T09:31:55;2.58;;;1.48;;
75358;SDS011;64046;51.978;5.934;2023-02-28T09:34:24;4.97;;;2.15;;
75358;SDS011;64046;51.978;5.934;2023-02-28T09:36:53;3.00;;;1.60;;
75358;SDS011;64046;51.978;5.934;2023-02-28T09:39:23;2.38;;;1.63;;
75358;SDS011;64046;51.978;5.934;2023-02-28T09:41:52;4.45;;;1.90;;
75358;SDS011;64046;51.978;5.934;2023-02-28T09:44:28;4.38;;;1.83;;
75358;SDS011;64046;51.978;5.934;2023-02-28T09:47:05;3.63;;;2.50;;
75358;SDS011;64046;51.978;5.934;2023-02-28T09:49:42;2.83;;;1.80;;
75358;SDS011;64046;51.978;5.934;2023-02-28T09:52:16;3.30;;;1.92;;
75358;SDS011;64046;51.978;5.934;2023-02-28T09:54:47;4.80;;;2.10;;
75358;SDS011;64046;51.978;5.934;2023-02-28T09:57:17;3.03;;;1.90;;
75358;SDS011;64046;51.978;5.934;2023-02-28T09:59:59;1.85;;;1.27;;
75358;SDS011;64046;51.978;5.934;2023-02-28T10:02:51;5.50;;;2.25;;
75358;SDS011;64046;51.978;5.934;2023-02-28T10:05:29;2.40;;;1.48;;
75358;SDS011;64046;51.978;5.934;2023-02-28T10:08:03;2.35;;;1.38;;
75358;SDS011;64046;51.978;5.934;2023-02-28T10:10:41;2.40;;;1.80;;
75358;SDS011;64046;51.978;5.934;2023-02-28T10:13:13;3.15;;;2.13;;
75358;SDS011;64046;51.978;5.934;2023-02-28T10:15:50;2.95;;;1.50;;
75358;SDS011;64046;51.978;5.934;2023-02-28T10:18:23;1.52;;;1.40;;
75358;SDS011;64046;51.978;5.934;2023-02-28T10:20:56;2.65;;;1.73;;
75358;SDS011;64046;51.978;5.934;2023-02-28T10:23:27;3.17;;;1.40;;
75358;SDS011;64046;51.978;5.934;2023-02-28T10:26:01;2.35;;;1.65;;
75358;SDS011;64046;51.978;5.934;2023-02-28T10:28:38;3.60;;;1.50;;
75358;SDS011;64046;51.978;5.934;2023-02-28T10:31:13;2.47;;;1.27;;
75358;SDS011;64046;51.978;5.934;2023-02-28T10:33:46;2.42;;;1.70;;
75358;SDS011;64046;51.978;5.934;2023-02-28T10:36:19;2.33;;;1.40;;
75358;SDS011;64046;51.978;5.934;2023-02-28T10:38:49;1.85;;;1.40;;
75358;SDS011;64046;51.978;5.934;2023-02-28T10:41:27;1.77;;;1.40;;
75358;SDS011;64046;51.978;5.934;2023-02-28T10:44:13;3.67;;;1.75;;
75358;SDS011;64046;51.978;5.934;2023-02-28T10:46:49;2.22;;;1.27;;
75358;SDS011;64046;51.978;5.934;2023-02-28T10:49:21;2.53;;;1.58;;
75358;SDS011;64046;51.978;5.934;2023-02-28T10:51:52;2.53;;;1.70;;
75358;SDS011;64046;51.978;5.934;2023-02-28T10:54:24;2.40;;;1.55;;
75358;SDS011;64046;51.978;5.934;2023-02-28T10:57:13;4.50;;;1.55;;
75358;SDS011;64046;51.978;5.934;2023-02-28T10:59:46;2.60;;;1.67;;
75358;SDS011;64046;51.978;5.934;2023-02-28T11:02:34;2.30;;;1.65;;
75358;SDS011;64046;51.978;5.934;2023-02-28T11:07:54;2.17;;;1.60;;
75358;SDS011;64046;51.978;5.934;2023-02-28T11:10:26;3.03;;;1.92;;
75358;SDS011;64046;51.978;5.934;2023-02-28T11:13:00;2.25;;;1.73;;
75358;SDS011;64046;51.978;5.934;2023-02-28T11:15:31;2.17;;;1.60;;
75358;SDS011;64046;51.978;5.934;2023-02-28T11:18:06;2.10;;;1.55;;
75358;SDS011;64046;51.978;5.934;2023-02-28T11:20:50;4.15;;;1.73;;
75358;SDS011;64046;51.978;5.934;2023-02-28T11:23:21;2.38;;;1.52;;
75358;SDS011;64046;51.978;5.934;2023-02-28T11:25:54;3.10;;;1.88;;
75358;SDS011;64046;51.978;5.934;2023-02-28T11:28:28;2.63;;;1.40;;
75358;SDS011;64046;51.978;5.934;2023-02-28T11:31:00;2.42;;;1.42;;
75358;SDS011;64046;51.978;5.934;2023-02-28T11:33:37;2.22;;;1.58;;
75358;SDS011;64046;51.978;5.934;2023-02-28T11:36:12;1.67;;;1.48;;
75358;SDS011;64046;51.978;5.934;2023-02-28T11:38:42;3.25;;;1.77;;
75358;SDS011;64046;51.978;5.934;2023-02-28T11:41:16;2.35;;;1.60;;
75358;SDS011;64046;51.978;5.934;2023-02-28T11:44:12;2.08;;;1.40;;
75358;SDS011;64046;51.978;5.934;2023-02-28T11:46:52;2.03;;;1.50;;
75358;SDS011;64046;51.978;5.934;2023-02-28T11:49:32;3.33;;;1.73;;
75358;SDS011;64046;51.978;5.934;2023-02-28T11:52:06;2.28;;;1.65;;
75358;SDS011;64046;51.978;5.934;2023-02-28T11:54:51;2.47;;;1.85;;
75358;SDS011;64046;51.978;5.934;2023-02-28T11:57:31;3.28;;;1.73;;
75358;SDS011;64046;51.978;5.934;2023-02-28T12:00:07;4.88;;;1.90;;
75358;SDS011;64046;51.978;5.934;2023-02-28T12:02:51;2.63;;;1.52;;
75358;SDS011;64046;51.978;5.934;2023-02-28T12:05:36;3.05;;;1.73;;
75358;SDS011;64046;51.978;5.934;2023-02-28T12:08:18;2.58;;;1.52;;
75358;SDS011;64046;51.978;5.934;2023-02-28T12:11:05;4.70;;;1.90;;
75358;SDS011;64046;51.978;5.934;2023-02-28T12:13:45;5.03;;;2.08;;
75358;SDS011;64046;51.978;5.934;2023-02-28T12:16:26;3.55;;;1.52;;
75358;SDS011;64046;51.978;5.934;2023-02-28T12:19:13;1.77;;;1.55;;
75358;SDS011;64046;51.978;5.934;2023-02-28T12:21:57;2.05;;;1.60;;
75358;SDS011;64046;51.978;5.934;2023-02-28T12:24:45;2.25;;;1.60;;
75358;SDS011;64046;51.978;5.934;2023-02-28T12:27:31;5.05;;;2.30;;
75358;SDS011;64046;51.978;5.934;2023-02-28T12:30:08;3.75;;;1.85;;
75358;SDS011;64046;51.978;5.934;2023-02-28T12:32:45;2.53;;;1.70;;
75358;SDS011;64046;51.978;5.934;2023-02-28T12:35:19;4.20;;;2.00;;
75358;SDS011;64046;51.978;5.934;2023-02-28T12:37:57;4.05;;;2.13;;
75358;SDS011;64046;51.978;5.934;2023-02-28T12:40:34;4.40;;;1.92;;
75358;SDS011;64046;51.978;5.934;2023-02-28T12:43:12;3.58;;;2.00;;
75358;SDS011;64046;51.978;5.934;2023-02-28T12:45:45;2.60;;;2.10;;
75358;SDS011;64046;51.978;5.934;2023-02-28T12:48:19;2.88;;;1.95;;
75358;SDS011;64046;51.978;5.934;2023-02-28T12:50:50;3.10;;;1.75;;
75358;SDS011;64046;51.978;5.934;2023-02-28T12:53:25;3.85;;;2.00;;
75358;SDS011;64046;51.978;5.934;2023-02-28T12:56:04;3.13;;;1.70;;
75358;SDS011;64046;51.978;5.934;2023-02-28T12:58:42;2.58;;;1.60;;
75358;SDS011;64046;51.978;5.934;2023-02-28T13:01:28;4.28;;;1.83;;
75358;SDS011;64046;51.978;5.934;2023-02-28T13:10:23;2.30;;;1.73;;
75358;SDS011;64046;51.978;5.934;2023-02-28T13:12:53;3.28;;;1.75;;
75358;SDS011;64046;51.978;5.934;2023-02-28T13:15:24;2.40;;;1.90;;
75358;SDS011;64046;51.978;5.934;2023-02-28T13:17:56;2.72;;;1.90;;
75358;SDS011;64046;51.978;5.934;2023-02-28T13:20:28;3.33;;;1.58;;
75358;SDS011;64046;51.978;5.934;2023-02-28T13:23:02;2.75;;;1.58;;
75358;SDS011;64046;51.978;5.934;2023-02-28T13:34:34;2.75;;;1.73;;
75358;SDS011;64046;51.978;5.934;2023-02-28T13:40:24;3.67;;;2.30;;
75358;SDS011;64046;51.978;5.934;2023-02-28T13:43:06;3.05;;;1.92;;
75358;SDS011;64046;51.978;5.934;2023-02-28T13:45:37;4.65;;;1.88;;
75358;SDS011;64046;51.978;5.934;2023-02-28T13:48:16;1.85;;;1.38;;
75358;SDS011;64046;51.978;5.934;2023-02-28T13:50:48;2.25;;;1.70;;
75358;SDS011;64046;51.978;5.934;2023-02-28T13:56:26;1.90;;;1.70;;
75358;SDS011;64046;51.978;5.934;2023-02-28T13:59:12;2.63;;;1.45;;
75358;SDS011;64046;51.978;5.934;2023-02-28T14:01:52;2.15;;;1.50;;
75358;SDS011;64046;51.978;5.934;2023-02-28T14:07:30;1.95;;;1.50;;
75358;SDS011;64046;51.978;5.934;2023-02-28T14:10:02;3.28;;;1.60;;
75358;SDS011;64046;51.978;5.934;2023-02-28T14:15:48;2.53;;;1.48;;
75358;SDS011;64046;51.978;5.934;2023-02-28T14:18:25;3.97;;;1.90;;
75358;SDS011;64046;51.978;5.934;2023-02-28T14:20:58;2.13;;;1.42;;
75358;SDS011;64046;51.978;5.934;2023-02-28T14:23:49;2.80;;;1.60;;
75358;SDS011;64046;51.978;5.934;2023-02-28T14:26:44;2.60;;;1.80;;
75358;SDS011;64046;51.978;5.934;2023-02-28T14:29:37;3.55;;;1.80;;
75358;SDS011;64046;51.978;5.934;2023-02-28T14:32:25;2.55;;;1.90;;
75358;SDS011;64046;51.978;5.934;2023-02-28T14:35:03;2.88;;;2.05;;
75358;SDS011;64046;51.978;5.934;2023-02-28T14:37:42;2.70;;;1.75;;
75358;SDS011;64046;51.978;5.934;2023-02-28T14:40:12;2.00;;;1.40;;
75358;SDS011;64046;51.978;5.934;2023-02-28T14:42:47;2.35;;;1.75;;
75358;SDS011;64046;51.978;5.934;2023-02-28T14:45:23;2.47;;;1.60;;
75358;SDS011;64046;51.978;5.934;2023-02-28T14:47:55;3.78;;;1.85;;
75358;SDS011;64046;51.978;5.934;2023-02-28T14:50:27;2.00;;;1.50;;
75358;SDS011;64046;51.978;5.934;2023-02-28T14:52:59;1.90;;;1.30;;
75358;SDS011;64046;51.978;5.934;2023-02-28T14:55:29;2.95;;;1.70;;
75358;SDS011;64046;51.978;5.934;2023-02-28T14:58:01;3.20;;;1.65;;
75358;SDS011;64046;51.978;5.934;2023-02-28T15:00:32;2.15;;;1.50;;
75358;SDS011;64046;51.978;5.934;2023-02-28T15:03:18;2.83;;;1.73;;
75358;SDS011;64046;51.978;5.934;2023-02-28T15:05:52;3.40;;;1.75;;
75358;SDS011;64046;51.978;5.934;2023-02-28T15:08:23;2.40;;;1.75;;
75358;SDS011;64046;51.978;5.934;2023-02-28T15:10:56;2.40;;;1.77;;
75358;SDS011;64046;51.978;5.934;2023-02-28T15:13:30;2.20;;;1.67;;
75358;SDS011;64046;51.978;5.934;2023-02-28T15:16:05;2.90;;;1.75;;
75358;SDS011;64046;51.978;5.934;2023-02-28T15:18:44;1.92;;;1.60;;
75358;SDS011;64046;51.978;5.934;2023-02-28T15:21:19;1.95;;;1.58;;
75358;SDS011;64046;51.978;5.934;2023-02-28T15:23:51;2.42;;;1.80;;
75358;SDS011;64046;51.978;5.934;2023-02-28T15:26:24;3.45;;;1.77;;
75358;SDS011;64046;51.978;5.934;2023-02-28T15:28:57;4.18;;;1.70;;
75358;SDS011;64046;51.978;5.934;2023-02-28T15:31:31;4.47;;;2.13;;
75358;SDS011;64046;51.978;5.934;2023-02-28T15:34:05;2.78;;;1.85;;
75358;SDS011;64046;51.978;5.934;2023-02-28T15:36:35;2.33;;;1.70;;
75358;SDS011;64046;51.978;5.934;2023-02-28T15:39:16;5.57;;;1.98;;
75358;SDS011;64046;51.978;5.934;2023-02-28T15:41:49;2.58;;;1.83;;
75358;SDS011;64046;51.978;5.934;2023-02-28T15:44:25;7.97;;;2.35;;
75358;SDS011;64046;51.978;5.934;2023-02-28T15:46:58;2.83;;;1.90;;
75358;SDS011;64046;51.978;5.934;2023-02-28T15:49:34;4.43;;;2.30;;
75358;SDS011;64046;51.978;5.934;2023-02-28T15:52:09;5.22;;;1.98;;
75358;SDS011;64046;51.978;5.934;2023-02-28T15:54:43;1.77;;;1.33;;
75358;SDS011;64046;51.978;5.934;2023-02-28T15:57:14;3.85;;;1.95;;
75358;SDS011;64046;51.978;5.934;2023-02-28T15:59:49;3.05;;;1.80;;
75358;SDS011;64046;51.978;5.934;2023-02-28T16:02:22;2.30;;;1.50;;
75358;SDS011;64046;51.978;5.934;2023-02-28T16:08:01;3.40;;;1.90;;
75358;SDS011;64046;51.978;5.934;2023-02-28T16:10:40;5.35;;;1.92;;
75358;SDS011;64046;51.978;5.934;2023-02-28T16:13:09;2.55;;;1.70;;
75358;SDS011;64046;51.978;5.934;2023-02-28T16:15:42;2.95;;;1.80;;